Time;durP1;ratioP1;P1;durP2;ratioP2;P2;SDS_P1;SDS_P2;PMS_P1;PMS_P2;Temp;Humidity;BMP_temperature;BMP_pressure;BME280_temperature;BME280_humidity;BME280_pressure;Samples;Min_cycle;Max_cycle;Signal;HPM_P1;HPM_P2
2022/07/22 00:00:52;;;;;;;6.75;3.72;;;24.00;61.40;;;;;;6098065;23;96625;-83
2022/07/22 00:03:17;;;;;;;5.78;3.22;;;24.00;61.30;;;;;;6097672;23;96419;-82
2022/07/22 00:05:43;;;;;;;6.57;3.50;;;24.00;61.20;;;;;;6073737;23;91910;-83
2022/07/22 00:08:09;;;;;;;4.25;3.08;;;24.00;61.30;;;;;;6098270;23;91618;-83
2022/07/22 00:10:34;;;;;;;7.38;3.53;;;24.00;61.10;;;;;;6099349;23;93618;-83
2022/07/22 00:13:00;;;;;;;5.35;2.92;;;24.00;61.90;;;;;;6072964;23;96488;-83
2022/07/22 00:15:25;;;;;;;5.15;3.30;;;24.00;61.30;;;;;;6097582;23;93295;-83
2022/07/22 00:17:51;;;;;;;6.07;3.10;;;24.00;61.10;;;;;;6101760;23;92229;-83
2022/07/22 00:20:19;;;;;;;4.75;3.13;;;24.00;61.30;;;;;;6101390;23;93715;-83
2022/07/22 00:22:44;;;;;;;7.00;3.15;;;24.00;61.10;;;;;;6100964;23;93257;-82
2022/07/22 00:25:10;;;;;;;5.38;3.67;;;24.00;61.10;;;;;;6101468;23;91921;-83
2022/07/22 00:27:36;;;;;;;5.43;3.33;;;24.00;61.60;;;;;;6101111;23;92450;-83
2022/07/22 00:30:02;;;;;;;4.90;2.80;;;24.00;61.70;;;;;;6098702;23;96832;-83
2022/07/22 00:32:28;;;;;;;5.75;3.47;;;24.00;61.70;;;;;;6100486;23;92770;-83
2022/07/22 00:34:54;;;;;;;4.63;2.90;;;24.00;61.70;;;;;;6101796;23;92262;-83
2022/07/22 00:37:19;;;;;;;10.77;3.58;;;24.00;61.50;;;;;;6074806;23;92252;-84
2022/07/22 00:39:47;;;;;;;5.40;3.58;;;23.90;61.30;;;;;;6100486;23;93749;-83
2022/07/22 00:42:13;;;;;;;4.80;3.05;;;24.00;61.20;;;;;;6074633;23;97217;-83
2022/07/22 00:44:39;;;;;;;5.35;3.08;;;23.90;61.30;;;;;;6101169;23;92150;-83
2022/07/22 00:47:05;;;;;;;5.72;3.25;;;23.90;61.00;;;;;;6068518;23;93289;-83
2022/07/22 00:49:31;;;;;;;4.82;3.10;;;24.00;61.30;;;;;;6044034;23;96360;-83
2022/07/22 00:51:57;;;;;;;5.70;2.80;;;23.90;61.30;;;;;;6068704;23;93233;-82
2022/07/22 00:54:22;;;;;;;4.35;2.95;;;24.00;61.40;;;;;;6043920;23;92265;-83
2022/07/22 00:56:48;;;;;;;4.63;2.83;;;23.90;61.20;;;;;;6043658;23;91691;-83
2022/07/22 00:59:14;;;;;;;4.10;3.08;;;24.00;61.30;;;;;;6068682;23;93544;-83
2022/07/22 01:01:40;;;;;;;3.85;2.90;;;24.00;61.30;;;;;;6068510;23;92654;-83
2022/07/22 01:04:06;;;;;;;4.78;3.03;;;23.90;61.40;;;;;;6043614;23;92861;-83
2022/07/22 01:06:32;;;;;;;4.72;3.03;;;23.90;61.40;;;;;;6069410;23;92314;-83
2022/07/22 01:08:58;;;;;;;5.30;3.17;;;23.90;61.10;;;;;;6068340;23;93402;-83
2022/07/22 01:11:24;;;;;;;4.10;2.63;;;23.90;61.20;;;;;;6068613;23;92441;-83
2022/07/22 01:13:50;;;;;;;4.95;2.88;;;23.90;61.10;;;;;;6043858;23;92127;-83
2022/07/22 01:16:17;;;;;;;5.35;2.90;;;23.90;61.00;;;;;;6068566;23;92583;-83
2022/07/22 01:18:43;;;;;;;3.83;2.92;;;23.90;61.40;;;;;;6092731;23;92631;-82
2022/07/22 01:21:10;;;;;;;4.55;2.83;;;23.90;61.20;;;;;;6074262;23;96129;-83
2022/07/22 01:23:36;;;;;;;3.30;2.60;;;23.90;61.30;;;;;;6100199;23;92232;-83
2022/07/22 01:26:02;;;;;;;4.25;3.03;;;23.90;61.40;;;;;;6100489;23;92337;-83
2022/07/22 01:28:28;;;;;;;3.70;2.72;;;23.90;61.20;;;;;;6098762;23;93305;-83
2022/07/22 01:30:53;;;;;;;4.30;3.03;;;23.90;61.20;;;;;;6100598;23;94257;-83
2022/07/22 01:33:20;;;;;;;4.53;3.08;;;23.90;61.20;;;;;;6101063;23;91721;-83
2022/07/22 01:35:46;;;;;;;5.70;3.05;;;23.90;61.30;;;;;;6100543;23;92373;-83
2022/07/22 01:38:13;;;;;;;4.50;3.20;;;23.90;61.30;;;;;;6100544;23;92271;-83
2022/07/22 01:40:39;;;;;;;4.32;2.92;;;23.80;61.20;;;;;;6100343;23;92763;-83
2022/07/22 01:43:05;;;;;;;5.60;3.47;;;23.90;61.10;;;;;;6101286;23;91886;-83
2022/07/22 01:45:31;;;;;;;4.97;2.90;;;23.90;61.20;;;;;;6100944;23;92336;-83
2022/07/22 01:47:57;;;;;;;5.25;2.90;;;23.90;61.10;;;;;;6100455;23;93058;-83
2022/07/22 01:50:23;;;;;;;4.88;3.00;;;23.80;61.20;;;;;;6100709;23;93175;-83
2022/07/22 01:52:49;;;;;;;4.88;3.30;;;23.80;61.40;;;;;;6100279;23;93147;-83
2022/07/22 01:55:15;;;;;;;3.83;2.50;;;23.90;61.30;;;;;;6100807;23;91840;-83
2022/07/22 01:57:40;;;;;;;4.88;3.00;;;23.80;61.20;;;;;;6101055;23;93567;-83
2022/07/22 02:00:08;;;;;;;3.45;2.60;;;23.80;61.70;;;;;;6097980;23;94876;-82
2022/07/22 02:02:34;;;;;;;5.05;3.05;;;23.80;61.10;;;;;;6098075;23;92155;-83
2022/07/22 02:05:00;;;;;;;4.05;2.83;;;23.80;61.10;;;;;;6097604;23;92406;-83
2022/07/22 02:07:26;;;;;;;4.05;2.67;;;23.80;61.40;;;;;;6099324;23;92640;-83
2022/07/22 02:09:52;;;;;;;3.00;2.63;;;23.80;61.30;;;;;;6073892;23;94462;-83
2022/07/22 02:12:19;;;;;;;4.65;3.00;;;23.80;61.20;;;;;;6100675;23;92088;-83
2022/07/22 02:14:45;;;;;;;4.65;3.05;;;23.80;61.10;;;;;;6101205;23;92292;-83
2022/07/22 02:17:11;;;;;;;3.88;2.85;;;23.80;61.30;;;;;;6072826;23;97606;-83
2022/07/22 02:19:36;;;;;;;4.20;3.20;;;23.80;61.20;;;;;;6101096;23;93432;-83
2022/07/22 02:22:02;;;;;;;4.65;2.80;;;23.80;61.40;;;;;;6074600;23;92354;-83
2022/07/22 02:24:28;;;;;;;4.13;2.65;;;23.80;61.30;;;;;;6100964;23;92393;-82
2022/07/22 02:26:53;;;;;;;5.10;2.78;;;23.80;61.20;;;;;;6100763;23;93642;-84
2022/07/22 02:29:19;;;;;;;3.50;2.60;;;23.80;61.10;;;;;;6073214;23;96406;-83
2022/07/22 02:31:45;;;;;;;5.45;3.28;;;23.80;61.10;;;;;;6098819;23;92338;-83
2022/07/22 02:34:10;;;;;;;3.63;2.58;;;23.80;61.00;;;;;;6100838;23;91561;-83
2022/07/22 02:36:36;;;;;;;4.35;3.08;;;23.80;61.10;;;;;;6100283;23;93889;-83
2022/07/22 02:39:02;;;;;;;3.58;2.67;;;23.80;61.10;;;;;;6073784;23;95055;-83
2022/07/22 02:41:28;;;;;;;3.97;2.65;;;23.80;61.10;;;;;;6100353;23;93196;-83
2022/07/22 02:43:54;;;;;;;3.25;2.67;;;23.80;61.10;;;;;;6073620;23;92398;-83
2022/07/22 02:46:23;;;;;;;4.82;3.22;;;23.80;61.00;;;;;;6100469;23;93774;-83
2022/07/22 02:48:49;;;;;;;4.75;3.20;;;23.80;60.90;;;;;;6101051;23;93422;-82
2022/07/22 02:51:15;;;;;;;4.22;2.85;;;23.80;61.10;;;;;;6072568;23;92323;-83
2022/07/22 02:53:40;;;;;;;4.38;2.78;;;23.80;60.90;;;;;;6100407;23;91845;-83
2022/07/22 02:56:06;;;;;;;4.03;3.13;;;23.70;61.00;;;;;;6098951;23;96582;-84
2022/07/22 02:58:34;;;;;;;2.60;2.40;;;23.70;60.90;;;;;;6100741;23;92214;-83
2022/07/22 03:01:00;;;;;;;5.60;3.25;;;23.70;61.00;;;;;;6074094;23;91847;-83
2022/07/22 03:03:26;;;;;;;3.65;2.97;;;23.70;61.00;;;;;;6099860;23;92024;-83
2022/07/22 03:05:51;;;;;;;5.07;3.22;;;23.80;61.00;;;;;;6099460;23;94546;-83
2022/07/22 03:08:17;;;;;;;3.78;2.88;;;23.70;61.10;;;;;;6073269;23;96756;-83
2022/07/22 03:10:43;;;;;;;5.43;2.83;;;23.70;61.10;;;;;;6100082;23;92225;-83
2022/07/22 03:13:08;;;;;;;3.67;2.67;;;23.80;61.00;;;;;;6073444;23;91872;-83
2022/07/22 03:15:34;;;;;;;3.80;2.45;;;23.70;61.10;;;;;;6100157;23;93164;-83
2022/07/22 03:18:00;;;;;;;4.38;2.70;;;23.70;61.00;;;;;;6100190;23;92775;-83
2022/07/22 03:20:26;;;;;;;3.50;2.70;;;23.80;61.10;;;;;;6098745;23;91807;-82
2022/07/22 03:22:51;;;;;;;2.80;2.45;;;23.70;61.10;;;;;;6074072;23;91572;-83
2022/07/22 03:25:17;;;;;;;5.68;2.90;;;23.70;61.10;;;;;;6099987;23;92257;-82
2022/07/22 03:27:43;;;;;;;2.83;2.55;;;23.70;61.10;;;;;;6038626;23;95390;-83
2022/07/22 03:30:09;;;;;;;4.05;2.70;;;23.70;61.10;;;;;;6037820;23;93257;-83
2022/07/22 03:32:34;;;;;;;4.32;2.92;;;23.70;61.10;;;;;;6013258;23;92010;-83
2022/07/22 03:35:00;;;;;;;3.60;2.70;;;23.70;61.00;;;;;;6013202;23;96161;-83
2022/07/22 03:37:26;;;;;;;4.43;2.83;;;23.70;61.10;;;;;;6038323;23;92678;-83
2022/07/22 03:39:51;;;;;;;3.10;2.58;;;23.70;61.10;;;;;;6013858;23;91949;-83
2022/07/22 03:42:17;;;;;;;5.43;2.97;;;23.70;61.10;;;;;;6038715;23;92318;-83
2022/07/22 03:44:43;;;;;;;3.35;2.95;;;23.70;61.00;;;;;;6013504;23;96901;-83
2022/07/22 03:47:11;;;;;;;3.75;2.58;;;23.70;61.20;;;;;;6013582;23;95920;-83
2022/07/22 03:49:39;;;;;;;3.75;3.05;;;23.70;61.00;;;;;;6038734;23;92167;-83
2022/07/22 03:52:04;;;;;;;3.20;2.60;;;23.70;61.40;;;;;;6014768;23;91970;-83
2022/07/22 03:54:30;;;;;;;3.60;2.63;;;23.70;61.40;;;;;;6014269;23;96093;-82
2022/07/22 03:56:56;;;;;;;3.08;2.65;;;23.70;61.40;;;;;;6014840;23;97204;-83
2022/07/22 03:59:21;;;;;;;4.13;2.38;;;23.70;61.50;;;;;;6085998;23;92374;-83
2022/07/22 04:01:47;;;;;;;4.38;2.80;;;23.70;61.50;;;;;;6101498;23;92569;-83
2022/07/22 04:04:12;;;;;;;3.35;2.75;;;23.70;61.50;;;;;;6100868;23;94096;-83
2022/07/22 04:06:38;;;;;;;4.50;3.03;;;23.70;61.40;;;;;;6100697;23;92758;-83
2022/07/22 04:09:04;;;;;;;3.72;2.83;;;23.70;61.40;;;;;;6101695;23;92627;-82
2022/07/22 04:11:29;;;;;;;4.30;2.58;;;23.70;61.40;;;;;;6074739;23;91124;-83
2022/07/22 04:13:55;;;;;;;3.70;2.55;;;23.70;61.30;;;;;;6101273;23;93587;-83
2022/07/22 04:16:20;;;;;;;2.90;2.60;;;23.70;61.40;;;;;;6099083;23;95993;-83
2022/07/22 04:18:46;;;;;;;3.72;3.08;;;23.70;61.40;;;;;;6074564;23;92695;-83
2022/07/22 04:21:12;;;;;;;3.35;2.22;;;23.70;61.20;;;;;;6101218;23;92041;-83
2022/07/22 04:23:39;;;;;;;2.60;2.35;;;23.70;61.40;;;;;;6100804;23;92682;-83
2022/07/22 04:26:05;;;;;;;4.03;2.50;;;23.70;61.20;;;;;;6101366;23;92210;-83
2022/07/22 04:28:34;;;;;;;3.20;2.75;;;23.70;61.20;;;;;;6101744;23;91847;-83
2022/07/22 04:30:59;;;;;;;3.30;2.37;;;23.70;61.20;;;;;;6101524;23;91803;-83
2022/07/22 04:33:25;;;;;;;3.78;2.75;;;23.70;60.60;;;;;;6073987;23;96614;-83
2022/07/22 04:35:52;;;;;;;2.53;2.30;;;23.70;60.60;;;;;;6100708;23;93353;-83
2022/07/22 04:38:22;;;;;;;3.30;2.50;;;23.70;60.60;;;;;;6075151;23;91970;-83
2022/07/22 04:40:47;;;;;;;;;;;23.70;60.70;;;;;;6075055;23;91935;-83
2022/07/22 04:43:13;;;;;;;3.38;2.50;;;23.70;60.50;;;;;;6101601;23;94032;-83
2022/07/22 04:45:38;;;;;;;3.28;2.63;;;23.70;60.70;;;;;;6100014;23;92917;-83
2022/07/22 04:48:04;;;;;;;3.00;2.50;;;23.80;60.90;;;;;;6099343;23;91892;-83
2022/07/22 04:50:30;;;;;;;2.80;2.35;;;23.80;60.80;;;;;;6098809;23;92357;-83
2022/07/22 04:52:55;;;;;;;3.22;2.50;;;23.70;60.70;;;;;;6074032;23;96466;-83
2022/07/22 04:55:21;;;;;;;3.70;2.35;;;23.80;60.60;;;;;;6100784;23;93026;-83
2022/07/22 04:57:47;;;;;;;3.20;2.28;;;23.70;60.30;;;;;;6101113;23;92496;-83
2022/07/22 05:00:15;;;;;;;3.22;2.60;;;23.70;60.40;;;;;;6101308;23;91490;-83
2022/07/22 05:02:41;;;;;;;3.15;2.20;;;23.70;60.30;;;;;;6038927;23;95629;-83
2022/07/22 05:05:07;;;;;;;3.13;2.65;;;23.80;60.50;;;;;;6038648;23;92404;-82
2022/07/22 05:07:32;;;;;;;2.95;2.60;;;23.80;60.40;;;;;;6038640;23;93517;-83
2022/07/22 05:09:58;;;;;;;5.47;2.83;;;23.80;60.40;;;;;;6038102;23;92356;-83
2022/07/22 05:12:24;;;;;;;2.78;2.40;;;23.80;60.40;;;;;;6038202;23;93813;-83
2022/07/22 05:14:49;;;;;;;2.88;2.42;;;23.80;60.40;;;;;;6038468;23;95047;-83
2022/07/22 05:17:15;;;;;;;2.53;2.25;;;23.80;60.30;;;;;;6038919;23;91932;-83
2022/07/22 05:19:41;;;;;;;2.85;2.53;;;23.80;60.20;;;;;;6038500;23;92334;-83
2022/07/22 05:22:07;;;;;;;2.70;2.30;;;23.90;60.10;;;;;;6037941;23;94768;-83
2022/07/22 05:24:35;;;;;;;3.05;2.13;;;23.90;60.20;;;;;;6038786;23;92399;-83
2022/07/22 05:27:03;;;;;;;3.05;2.30;;;23.90;60.20;;;;;;6039127;23;91969;-83
2022/07/22 05:29:29;;;;;;;3.75;2.30;;;23.90;60.30;;;;;;6037727;23;92027;-83
2022/07/22 05:31:55;;;;;;;3.03;2.38;;;23.90;60.90;;;;;;6013540;23;98090;-83
2022/07/22 05:34:20;;;;;;;3.50;2.72;;;23.90;60.10;;;;;;6038446;23;94198;-83
2022/07/22 05:36:46;;;;;;;2.88;2.50;;;23.90;60.10;;;;;;6039342;23;91828;-82
2022/07/22 05:39:12;;;;;;;2.80;2.28;;;24.00;60.10;;;;;;6041649;23;92346;-81
2022/07/22 05:41:38;;;;;;;5.82;3.10;;;24.00;59.60;;;;;;6095769;23;92588;-80
2022/07/22 05:44:04;;;;;;;7.72;4.00;;;24.00;58.60;;;;;;6096604;23;92611;-81
2022/07/22 05:46:30;;;;;;;7.85;3.60;;;23.80;57.70;;;;;;6098199;23;92377;-82
2022/07/22 05:48:55;;;;;;;7.40;3.30;;;23.70;57.50;;;;;;6096396;23;91812;-81
2022/07/22 05:51:22;;;;;;;6.50;3.20;;;23.70;57.70;;;;;;6097158;23;92963;-81
2022/07/22 05:53:48;;;;;;;9.95;3.75;;;23.70;58.00;;;;;;6097686;23;93641;-81
2022/07/22 05:56:13;;;;;;;8.77;4.55;;;23.70;57.70;;;;;;6099568;23;93234;-82
2022/07/22 05:58:41;;;;;;;6.53;3.22;;;23.70;57.90;;;;;;6097453;23;91951;-81
2022/07/22 06:01:07;;;;;;;8.05;3.15;;;23.80;57.70;;;;;;6096780;23;95116;-81
2022/07/22 06:03:33;;;;;;;9.32;4.00;;;23.70;57.40;;;;;;6095933;23;92347;-81
2022/07/22 06:06:01;;;;;;;9.90;3.33;;;23.70;57.00;;;;;;6095317;23;92169;-81
2022/07/22 06:08:27;;;;;;;8.75;3.50;;;23.70;56.80;;;;;;6096483;23;92265;-82
2022/07/22 06:10:52;;;;;;;6.85;3.35;;;23.70;57.00;;;;;;6099198;23;93065;-81
2022/07/22 06:13:18;;;;;;;8.45;3.53;;;23.60;56.90;;;;;;6097540;23;92773;-81
2022/07/22 06:15:44;;;;;;;10.18;2.92;;;23.60;56.90;;;;;;6097185;23;92396;-81
2022/07/22 06:18:10;;;;;;;9.77;3.22;;;23.70;56.70;;;;;;6097680;23;92547;-81
2022/07/22 06:20:36;;;;;;;6.43;3.15;;;23.60;56.30;;;;;;6097389;23;93925;-82
2022/07/22 06:23:01;;;;;;;6.03;2.55;;;23.60;56.10;;;;;;6097379;23;94169;-82
2022/07/22 06:25:27;;;;;;;6.43;2.42;;;23.60;55.30;;;;;;6097497;23;92320;-82
2022/07/22 06:27:53;;;;;;;6.25;2.20;;;23.50;55.10;;;;;;6097338;23;91877;-82
2022/07/22 06:30:18;;;;;;;3.95;2.10;;;23.60;54.50;;;;;;6096132;23;93395;-82
2022/07/22 06:32:44;;;;;;;7.95;2.90;;;23.60;54.50;;;;;;6095686;23;93078;-82
2022/07/22 06:35:10;;;;;;;8.38;3.13;;;23.60;53.90;;;;;;6097372;23;91873;-82
2022/07/22 06:37:35;;;;;;;6.63;2.55;;;23.60;53.80;;;;;;6097136;23;91187;-82
2022/07/22 06:40:02;;;;;;;6.32;2.58;;;23.50;53.60;;;;;;6056392;23;92268;-83
2022/07/22 06:42:27;;;;;;;6.15;2.80;;;23.50;54.10;;;;;;6032642;23;93002;-81
2022/07/22 06:44:53;;;;;;;8.85;2.47;;;23.50;54.10;;;;;;6097163;23;93290;-81
2022/07/22 06:47:18;;;;;;;5.63;2.38;;;23.50;54.00;;;;;;6095904;23;91882;-80
2022/07/22 06:49:44;;;;;;;11.60;2.53;;;23.50;53.50;;;;;;6096428;23;92724;-81
2022/07/22 06:52:10;;;;;;;5.45;2.38;;;23.50;53.90;;;;;;6095674;23;93285;-81
2022/07/22 06:54:35;;;;;;;7.07;2.63;;;23.50;54.20;;;;;;6095931;23;92484;-81
2022/07/22 06:57:01;;;;;;;103.57;19.20;;;23.50;53.90;;;;;;6094658;23;92399;-82
2022/07/22 06:59:29;;;;;;;71.43;13.88;;;23.50;53.40;;;;;;6094993;23;93370;-81
2022/07/22 07:01:54;;;;;;;48.28;11.55;;;23.50;53.40;;;;;;6093898;23;91957;-82
2022/07/22 07:04:20;;;;;;;42.95;8.77;;;23.50;53.20;;;;;;6096029;23;92602;-82
2022/07/22 07:06:46;;;;;;;25.30;5.88;;;23.50;53.30;;;;;;6096742;23;92343;-82
2022/07/22 07:09:12;;;;;;;17.02;4.10;;;23.60;53.10;;;;;;6096346;23;94584;-82
2022/07/22 07:11:37;;;;;;;7.60;3.63;;;23.50;52.40;;;;;;6068789;23;95670;-82
2022/07/22 07:14:03;;;;;;;18.15;4.10;;;23.50;52.30;;;;;;6096620;23;92016;-82
2022/07/22 07:16:29;;;;;;;7.43;3.45;;;23.60;52.70;;;;;;6096468;23;92164;-82
2022/07/22 07:18:55;;;;;;;11.07;3.47;;;23.50;52.30;;;;;;6095038;23;93409;-82
2022/07/22 07:21:20;;;;;;;11.18;3.97;;;23.60;52.60;;;;;;6096358;23;92798;-82
2022/07/22 07:23:46;;;;;;;10.85;4.05;;;23.70;52.90;;;;;;6096640;23;92251;-81
2022/07/22 07:26:13;;;;;;;6.43;3.33;;;23.60;52.90;;;;;;6096098;23;91395;-82
2022/07/22 07:28:38;;;;;;;9.02;3.40;;;23.70;52.40;;;;;;6096751;23;93997;-83
2022/07/22 07:31:04;;;;;;;8.10;3.08;;;23.70;52.20;;;;;;6097866;23;95266;-84
2022/07/22 07:33:30;;;;;;;13.48;3.50;;;23.70;51.90;;;;;;6100000;23;92982;-84
2022/07/22 07:35:55;;;;;;;8.10;3.15;;;23.80;52.10;;;;;;6099621;23;92326;-84
2022/07/22 07:38:21;;;;;;;8.48;3.10;;;23.80;52.20;;;;;;6100381;23;91973;-84
2022/07/22 07:40:47;;;;;;;7.15;2.90;;;23.80;51.80;;;;;;6099678;23;92171;-84
2022/07/22 07:43:12;;;;;;;5.03;2.63;;;23.70;51.60;;;;;;6100343;23;91901;-84
2022/07/22 07:45:38;;;;;;;4.18;2.28;;;23.70;51.60;;;;;;6099049;23;91902;-84
2022/07/22 07:48:05;;;;;;;4.38;2.42;;;23.60;51.70;;;;;;6073857;23;96005;-84
2022/07/22 07:50:33;;;;;;;8.35;2.47;;;23.50;52.00;;;;;;6073784;23;94713;-84
2022/07/22 07:52:58;;;;;;;8.15;2.47;;;23.60;52.40;;;;;;6100238;23;91783;-82
2022/07/22 07:55:24;;;;;;;6.65;2.10;;;23.50;52.40;;;;;;6099794;23;91873;-84
2022/07/22 07:57:50;;;;;;;11.20;2.75;;;23.50;52.20;;;;;;6098508;23;93943;-84
2022/07/22 08:00:20;;;;;;;8.63;3.13;;;23.50;52.10;;;;;;6072673;23;97257;-83
2022/07/22 08:02:45;;;;;;;26.30;6.05;;;23.50;51.90;;;;;;6069099;23;92260;-85
2022/07/22 08:05:11;;;;;;;18.23;5.85;;;23.50;52.40;;;;;;6093712;23;92597;-83
2022/07/22 08:07:38;;;;;;;19.20;5.55;;;23.50;52.20;;;;;;6092923;23;95062;-83
2022/07/22 08:10:05;;;;;;;13.13;5.03;;;23.50;52.30;;;;;;6093162;23;93313;-83
2022/07/22 08:12:31;;;;;;;15.05;4.47;;;23.50;52.40;;;;;;6067510;23;91874;-83
2022/07/22 08:14:56;;;;;;;10.68;4.35;;;23.60;52.60;;;;;;6091786;23;91138;-83
2022/07/22 08:17:25;;;;;;;11.10;3.67;;;23.60;52.80;;;;;;6092480;23;93780;-84
2022/07/22 08:19:50;;;;;;;13.90;4.57;;;23.60;53.00;;;;;;6093425;23;93251;-83
2022/07/22 08:22:16;;;;;;;19.13;4.70;;;23.70;53.40;;;;;;6093156;23;93289;-85
2022/07/22 08:24:42;;;;;;;8.43;2.97;;;23.80;53.90;;;;;;6093502;23;92255;-84
2022/07/22 08:27:07;;;;;;;12.80;3.78;;;23.70;52.70;;;;;;6092679;23;92287;-83
2022/07/22 08:29:34;;;;;;;9.30;3.22;;;23.70;53.40;;;;;;6093069;23;92260;-84
2022/07/22 08:32:02;;;;;;;8.18;3.03;;;23.80;53.50;;;;;;6093309;23;92708;-85
2022/07/22 08:34:28;;;;;;;8.63;2.70;;;23.80;53.30;;;;;;6091572;23;91839;-82
2022/07/22 08:36:53;;;;;;;8.13;3.10;;;23.90;53.20;;;;;;6092538;23;91885;-83
2022/07/22 08:39:19;;;;;;;5.82;2.67;;;23.90;53.70;;;;;;6093702;23;93402;-84
2022/07/22 08:41:44;;;;;;;7.90;2.70;;;23.80;53.60;;;;;;6067609;23;92258;-83
2022/07/22 08:44:10;;;;;;;6.95;2.92;;;23.80;53.90;;;;;;6094117;23;92448;-84
2022/07/22 08:46:36;;;;;;;5.60;2.90;;;23.80;54.70;;;;;;6092383;23;94396;-83
2022/07/22 08:49:02;;;;;;;8.07;3.20;;;23.90;54.70;;;;;;6093528;23;93718;-83
2022/07/22 08:51:28;;;;;;;7.07;2.50;;;23.90;54.50;;;;;;6093673;23;92289;-83
2022/07/22 08:53:55;;;;;;;8.57;2.95;;;24.00;52.90;;;;;;6093709;23;92624;-83
2022/07/22 08:56:20;;;;;;;6.22;2.80;;;24.00;52.10;;;;;;6098519;23;93266;-80
2022/07/22 08:58:46;;;;;;;8.43;2.40;;;24.00;51.90;;;;;;6098727;23;93125;-81
2022/07/22 09:01:15;;;;;;;5.75;2.80;;;23.90;53.10;;;;;;6101415;23;91869;-81
2022/07/22 09:03:55;;;;;;;5.82;2.28;;;24.00;53.80;;;;;;6100257;23;91644;-81
2022/07/22 09:06:23;;;;;;;4.72;2.20;;;23.90;53.30;;;;;;6100479;23;93774;-81
2022/07/22 09:09:03;;;;;;;4.53;2.22;;;23.90;52.80;;;;;;6099386;23;93661;-81
2022/07/22 09:11:30;;;;;;;6.25;2.30;;;23.90;53.70;;;;;;6073107;23;93291;-81
2022/07/22 09:13:58;;;;;;;8.20;2.17;;;23.90;53.00;;;;;;6099910;23;92417;-82
2022/07/22 09:16:45;;;;;;;5.90;2.80;;;23.90;53.00;;;;;;6098640;23;95604;-82
2022/07/22 09:19:12;;;;;;;8.18;2.63;;;24.00;53.10;;;;;;6100793;23;91878;-83
2022/07/22 09:21:43;;;;;;;18.08;5.20;;;24.00;53.60;;;;;;6100063;23;91837;-82
2022/07/22 09:24:29;;;;;;;14.68;5.88;;;23.90;53.30;;;;;;6073716;23;91951;-83
2022/07/22 09:26:55;;;;;;;39.90;16.20;;;24.00;53.90;;;;;;6099736;23;93499;-82
2022/07/22 09:29:22;;;;;;;52.92;18.95;;;24.20;53.80;;;;;;6099342;23;92668;-82
2022/07/22 09:31:51;;;;;;;53.17;19.85;;;24.20;53.60;;;;;;6098642;23;91927;-82
2022/07/22 09:34:27;;;;;;;55.75;19.73;;;24.20;53.80;;;;;;6098806;23;92062;-82
2022/07/22 09:36:58;;;;;;;50.65;20.65;;;24.20;53.80;;;;;;6097882;23;94947;-81
2022/07/22 09:39:28;;;;;;;53.03;19.70;;;24.20;54.10;;;;;;6099586;23;95101;-82
2022/07/22 09:41:59;;;;;;;50.92;19.08;;;24.20;54.10;;;;;;6099964;23;91855;-83
2022/07/22 09:44:24;;;;;;;41.90;15.18;;;24.20;54.30;;;;;;6099721;23;92202;-81
2022/07/22 09:46:50;;;;;;;37.58;14.95;;;24.20;53.90;;;;;;6072865;23;94143;-83
2022/07/22 09:49:38;;;;;;;37.03;15.05;;;24.20;54.00;;;;;;6097892;23;91906;-83
2022/07/22 09:52:04;;;;;;;35.50;15.00;;;24.20;54.70;;;;;;6095798;23;92083;-82
2022/07/22 09:54:30;;;;;;;34.10;14.68;;;24.30;54.80;;;;;;6071039;23;92056;-82
2022/07/22 09:56:57;;;;;;;33.40;14.07;;;24.30;54.70;;;;;;6098527;23;92668;-84
2022/07/22 09:59:23;;;;;;;29.77;13.63;;;24.20;54.80;;;;;;6098957;23;92862;-83
2022/07/22 10:01:52;;;;;;;30.13;11.50;;;24.20;54.90;;;;;;6099277;23;93057;-83
2022/07/22 10:04:20;;;;;;;23.75;9.30;;;24.20;54.60;;;;;;6100173;23;92127;-84
2022/07/22 10:06:48;;;;;;;26.40;9.75;;;24.20;54.50;;;;;;6099946;23;94146;-82
2022/07/22 10:09:16;;;;;;;21.08;9.50;;;24.20;54.60;;;;;;6099165;23;93174;-82
2022/07/22 10:11:46;;;;;;;22.47;8.73;;;24.10;54.60;;;;;;6073176;23;92831;-81
2022/07/22 10:14:14;;;;;;;18.90;7.10;;;24.30;54.90;;;;;;6100319;23;92215;-82
2022/07/22 10:16:40;;;;;;;24.85;7.60;;;24.30;54.40;;;;;;6099991;23;93606;-82
2022/07/22 10:19:06;;;;;;;14.23;6.22;;;24.30;54.40;;;;;;6100975;23;93358;-83
2022/07/22 10:21:34;;;;;;;18.52;7.22;;;24.30;54.20;;;;;;6073767;23;92383;-82
2022/07/22 10:24:23;;;;;;;17.73;6.70;;;24.30;54.30;;;;;;6099488;23;91956;-82
2022/07/22 10:26:52;;;;;;;;;;;24.30;55.00;;;;;;6099020;23;94127;-82
2022/07/22 10:29:36;;;;;;;;;;;24.30;54.40;;;;;;6102541;23;93515;-82
2022/07/22 10:32:17;;;;;;;10.40;5.63;;;24.30;54.30;;;;;;6101849;23;92238;-82
2022/07/22 10:35:06;;;;;;;20.85;6.68;;;24.30;54.30;;;;;;6099823;23;92144;-81
2022/07/22 10:37:35;;;;;;;13.52;5.80;;;24.30;54.50;;;;;;6099413;23;93195;-82
2022/07/22 10:40:11;;;;;;;11.70;5.45;;;24.30;54.40;;;;;;6099506;23;92757;-82
2022/07/22 10:42:58;;;;;;;11.73;5.18;;;24.30;54.30;;;;;;6099938;23;92262;-81
2022/07/22 10:45:25;;;;;;;9.82;5.25;;;24.30;54.50;;;;;;6100206;23;91196;-82
2022/07/22 10:47:55;;;;;;;12.10;5.20;;;24.30;54.30;;;;;;6099542;23;93662;-82
2022/07/22 10:50:39;;;;;;;11.63;5.03;;;24.30;54.50;;;;;;6099089;23;93539;-82
2022/07/22 10:53:17;;;;;;;12.57;5.30;;;24.30;54.60;;;;;;6099855;23;93220;-82
2022/07/22 10:56:01;;;;;;;11.15;4.55;;;24.30;54.40;;;;;;6100037;23;92277;-82
2022/07/22 10:58:35;;;;;;;9.15;4.60;;;24.30;54.50;;;;;;6072631;23;96370;-82
2022/07/22 11:01:07;;;;;;;12.60;4.30;;;24.30;54.50;;;;;;6098920;23;92960;-82
2022/07/22 11:03:34;;;;;;;11.77;4.75;;;24.20;54.40;;;;;;6099171;23;91914;-82
2022/07/22 11:06:18;;;;;;;10.13;5.20;;;24.20;54.50;;;;;;6100046;23;92224;-82
2022/07/22 11:08:46;;;;;;;11.63;4.88;;;24.30;54.30;;;;;;6099418;23;93670;-82
2022/07/22 11:11:11;;;;;;;8.35;4.15;;;24.20;54.30;;;;;;6100066;23;93321;-82
2022/07/22 11:13:38;;;;;;;11.40;5.05;;;24.20;54.30;;;;;;6100119;23;92494;-82
2022/07/22 11:16:33;;;;;;;7.60;4.45;;;24.20;54.40;;;;;;6100306;23;92164;-82
2022/07/22 11:19:02;;;;;;;16.80;4.70;;;24.20;54.30;;;;;;5951850;23;93990;-82
2022/07/22 11:21:32;;;;;;;12.40;4.60;;;24.30;54.70;;;;;;5952250;23;94160;-83
2022/07/22 11:24:01;;;;;;;8.80;4.45;;;24.30;55.10;;;;;;5953209;23;91952;-84
2022/07/22 11:26:43;;;;;;;10.27;4.72;;;24.30;54.90;;;;;;5928904;23;91982;-83
2022/07/22 11:29:09;;;;;;;11.10;4.13;;;24.30;54.80;;;;;;5951798;23;93657;-82
2022/07/22 11:31:37;;;;;;;9.50;5.07;;;24.30;55.00;;;;;;5952244;23;92203;-83
2022/07/22 11:34:07;;;;;;;9.02;4.20;;;24.30;54.90;;;;;;5952912;23;92750;-82
2022/07/22 11:36:34;;;;;;;15.15;5.88;;;24.30;55.00;;;;;;5952984;23;91493;-83
2022/07/22 11:39:00;;;;;;;13.63;4.85;;;24.30;55.00;;;;;;5951699;23;94454;-83
2022/07/22 11:41:30;;;;;;;9.95;4.60;;;24.30;55.20;;;;;;5951774;23;93313;-82
2022/07/22 11:43:55;;;;;;;8.32;3.85;;;24.30;55.20;;;;;;5952128;23;93539;-82
2022/07/22 11:46:23;;;;;;;8.55;3.53;;;24.20;55.00;;;;;;5952435;23;92272;-82
2022/07/22 11:48:48;;;;;;;7.55;3.90;;;24.20;55.10;;;;;;5951286;23;93272;-82
2022/07/22 11:51:15;;;;;;;10.82;3.75;;;24.20;55.20;;;;;;5928134;23;94880;-82
2022/07/22 11:53:42;;;;;;;10.48;3.50;;;24.20;55.00;;;;;;5928262;23;92570;-82
2022/07/22 11:56:09;;;;;;;8.77;3.42;;;24.20;55.20;;;;;;6068215;23;91858;-82
2022/07/22 11:58:35;;;;;;;6.25;3.55;;;24.20;55.00;;;;;;6099102;23;92559;-82
2022/07/22 12:01:01;;;;;;;10.40;3.75;;;24.30;54.80;;;;;;6099513;23;92077;-82
2022/07/22 12:03:27;;;;;;;10.68;3.88;;;24.30;54.90;;;;;;6099303;23;91871;-82
2022/07/22 12:05:54;;;;;;;6.18;2.95;;;24.30;54.80;;;;;;6099828;23;91768;-82
2022/07/22 12:08:20;;;;;;;10.40;3.53;;;24.20;54.80;;;;;;6097746;23;95112;-82
2022/07/22 12:10:46;;;;;;;11.00;3.65;;;24.20;54.80;;;;;;6097874;23;93328;-82
2022/07/22 12:13:13;;;;;;;7.25;3.42;;;24.30;55.00;;;;;;6101092;23;91879;-82
2022/07/22 12:15:39;;;;;;;7.30;3.55;;;24.30;55.00;;;;;;6100048;23;92257;-83
2022/07/22 12:18:21;;;;;;;9.18;3.25;;;24.30;55.00;;;;;;6100625;23;93538;-83
2022/07/22 12:20:48;;;;;;;6.18;3.13;;;24.20;54.90;;;;;;6099982;23;91940;-82
2022/07/22 12:23:14;;;;;;;6.80;3.30;;;24.30;55.00;;;;;;6100164;23;92265;-83
2022/07/22 12:25:58;;;;;;;6.68;3.42;;;24.20;55.00;;;;;;6074377;23;91725;-82
2022/07/22 12:28:25;;;;;;;7.07;2.83;;;24.30;55.10;;;;;;6099546;23;93519;-82
2022/07/22 12:30:52;;;;;;;6.38;3.47;;;24.30;55.00;;;;;;6100127;23;92950;-82
2022/07/22 12:33:19;;;;;;;7.60;3.08;;;24.30;55.00;;;;;;6099991;23;93191;-82
2022/07/22 12:36:02;;;;;;;6.43;3.45;;;24.30;55.80;;;;;;6099926;23;91881;-82
2022/07/22 12:38:28;;;;;;;5.30;3.38;;;24.30;55.20;;;;;;6100426;23;93294;-82
2022/07/22 12:40:54;;;;;;;7.30;3.45;;;24.30;55.10;;;;;;6099077;23;93840;-83
2022/07/22 12:43:25;;;;;;;7.20;3.80;;;24.30;55.20;;;;;;6100158;23;92231;-82
2022/07/22 12:45:50;;;;;;;6.15;3.40;;;24.30;55.20;;;;;;6100389;23;91974;-82